Time;durP1;ratioP1;P1;durP2;ratioP2;P2;SDS_P1;SDS_P2;PMS_P1;PMS_P2;Temp;Humidity;BMP_temperature;BMP_pressure;BME280_temperature;BME280_humidity;BME280_pressure;Samples;Min_cycle;Max_cycle;Signal;HPM_P1;HPM_P2
2023/12/27 00:01:45;;;;;;;18.70;8.47;;;8.00;99.90;;;;;;5115624;28;20198;-73
2023/12/27 00:04:11;;;;;;;17.00;7.87;;;8.10;99.90;;;;;;5115431;28;20172;-73
2023/12/27 00:06:37;;;;;;;22.23;8.10;;;8.00;99.90;;;;;;5115525;28;20565;-73
2023/12/27 00:09:03;;;;;;;18.80;7.47;;;7.90;99.90;;;;;;5115522;28;20172;-73
2023/12/27 00:11:29;;;;;;;18.37;8.17;;;7.80;99.90;;;;;;5115363;28;20183;-74
2023/12/27 00:13:54;;;;;;;28.63;8.13;;;7.90;99.90;;;;;;5115109;28;20510;-72
2023/12/27 00:16:20;;;;;;;24.83;7.80;;;7.90;99.90;;;;;;5115581;28;20171;-73
2023/12/27 00:18:45;;;;;;;24.80;9.37;;;7.80;99.90;;;;;;5115287;28;20195;-73
2023/12/27 00:21:11;;;;;;;25.93;9.87;;;7.80;99.90;;;;;;5115233;28;20174;-72
2023/12/27 00:23:37;;;;;;;23.83;9.60;;;7.90;99.90;;;;;;5115190;28;20544;-72
2023/12/27 00:26:02;;;;;;;24.77;8.53;;;7.90;99.90;;;;;;5096801;28;20167;-72
2023/12/27 00:28:28;;;;;;;25.37;8.40;;;7.90;99.90;;;;;;5114680;28;20229;-73
2023/12/27 00:30:54;;;;;;;17.47;8.33;;;8.00;99.90;;;;;;5115185;28;20668;-74
2023/12/27 00:33:19;;;;;;;24.67;8.33;;;8.00;99.90;;;;;;5114976;28;20209;-72
2023/12/27 00:35:46;;;;;;;20.87;8.50;;;8.00;99.90;;;;;;5096658;28;20179;-73
2023/12/27 00:38:11;;;;;;;17.63;8.70;;;8.10;99.90;;;;;;5096626;28;21241;-73
2023/12/27 00:40:37;;;;;;;16.70;6.90;;;8.10;99.90;;;;;;5114698;28;20256;-73
2023/12/27 00:43:03;;;;;;;16.97;7.97;;;8.00;99.90;;;;;;5114446;28;20650;-73
2023/12/27 00:45:28;;;;;;;16.37;7.67;;;8.10;99.90;;;;;;5114657;28;20529;-72
2023/12/27 00:47:54;;;;;;;22.67;8.33;;;8.00;99.90;;;;;;5114758;28;20194;-72
2023/12/27 00:50:19;;;;;;;19.43;7.83;;;7.90;99.90;;;;;;5114769;28;20266;-73
2023/12/27 00:52:45;;;;;;;19.90;7.90;;;8.00;99.90;;;;;;5114563;28;20271;-73
2023/12/27 00:55:11;;;;;;;23.57;8.07;;;8.10;99.90;;;;;;5114480;28;20179;-73
2023/12/27 00:57:36;;;;;;;28.97;8.43;;;8.20;99.90;;;;;;5114025;28;20167;-73
2023/12/27 01:00:03;;;;;;;19.33;7.90;;;8.20;99.90;;;;;;5114352;28;20569;-73
2023/12/27 01:02:29;;;;;;;21.00;7.57;;;8.20;99.90;;;;;;5114462;28;20189;-73
2023/12/27 01:04:55;;;;;;;20.07;8.13;;;8.20;99.90;;;;;;5114353;28;20630;-73
2023/12/27 01:07:22;;;;;;;23.33;7.20;;;8.20;99.90;;;;;;5114307;28;20258;-73
2023/12/27 01:09:48;;;;;;;24.27;7.07;;;8.10;99.90;;;;;;5114575;28;20607;-73
2023/12/27 01:12:14;;;;;;;23.37;7.50;;;8.10;99.90;;;;;;5113897;28;20191;-73
2023/12/27 01:14:40;;;;;;;23.73;7.37;;;8.10;99.90;;;;;;5095981;28;20176;-71
2023/12/27 01:17:06;;;;;;;25.63;7.70;;;8.10;99.90;;;;;;5114046;28;20637;-72
2023/12/27 01:19:31;;;;;;;21.20;6.90;;;8.20;99.90;;;;;;5114113;28;20207;-72
2023/12/27 01:21:57;;;;;;;20.83;6.70;;;8.20;99.90;;;;;;5114159;28;20171;-74
2023/12/27 01:24:23;;;;;;;23.40;7.03;;;8.20;99.90;;;;;;5113907;28;20167;-73
2023/12/27 01:26:48;;;;;;;20.27;7.53;;;8.30;99.90;;;;;;5113776;28;20163;-73
2023/12/27 01:29:14;;;;;;;18.43;7.37;;;8.30;99.90;;;;;;5113782;28;20234;-72
2023/12/27 01:31:39;;;;;;;27.53;7.83;;;8.50;99.90;;;;;;5114288;28;20629;-73
2023/12/27 01:34:05;;;;;;;20.83;6.67;;;8.40;99.90;;;;;;5113999;28;20166;-73
2023/12/27 01:36:31;;;;;;;19.83;7.00;;;8.40;99.90;;;;;;5113946;28;20253;-72
2023/12/27 01:38:56;;;;;;;17.57;6.73;;;8.40;99.90;;;;;;5113656;28;20198;-72
2023/12/27 01:41:22;;;;;;;20.10;7.03;;;8.40;99.90;;;;;;5113408;28;20175;-73
2023/12/27 01:43:48;;;;;;;19.40;7.03;;;8.40;99.90;;;;;;5113734;28;20175;-72
2023/12/27 01:46:13;;;;;;;18.13;6.77;;;8.50;99.90;;;;;;5095461;28;20175;-72
2023/12/27 01:48:41;;;;;;;20.37;6.63;;;8.50;99.90;;;;;;5113664;28;20175;-73
2023/12/27 01:51:07;;;;;;;21.50;6.83;;;8.50;99.90;;;;;;5113848;28;20626;-72
2023/12/27 01:53:33;;;;;;;16.87;6.30;;;8.40;99.90;;;;;;5113720;28;20167;-73
2023/12/27 01:56:01;;;;;;;19.27;6.83;;;8.40;99.90;;;;;;5112720;28;20287;-73
2023/12/27 01:58:27;;;;;;;20.63;6.67;;;8.50;99.90;;;;;;5113549;28;20163;-73
2023/12/27 02:00:53;;;;;;;12.80;6.17;;;8.40;99.90;;;;;;5113804;28;20167;-73
2023/12/27 02:03:21;;;;;;;18.57;6.73;;;8.50;99.90;;;;;;5113786;28;20265;-73
2023/12/27 02:05:48;;;;;;;22.67;6.10;;;8.50;99.90;;;;;;5113504;28;20175;-73
2023/12/27 02:08:14;;;;;;;19.47;6.77;;;8.50;99.90;;;;;;5113604;28;20171;-73
2023/12/27 02:10:41;;;;;;;18.10;6.07;;;8.40;99.90;;;;;;5113305;28;20171;-72
2023/12/27 02:13:07;;;;;;;18.47;7.00;;;8.50;99.90;;;;;;5113598;28;20194;-72
2023/12/27 02:15:33;;;;;;;15.80;7.03;;;8.50;99.90;;;;;;5113502;28;20550;-72
2023/12/27 02:18:00;;;;;;;18.57;6.00;;;8.40;99.90;;;;;;5113497;28;20254;-73
2023/12/27 02:20:26;;;;;;;14.23;6.00;;;8.40;99.90;;;;;;5113436;28;20696;-73
2023/12/27 02:22:54;;;;;;;15.27;6.17;;;8.50;99.90;;;;;;5095065;28;20175;-73
2023/12/27 02:25:20;;;;;;;13.73;6.47;;;8.50;99.90;;;;;;5113146;28;20180;-72
2023/12/27 02:27:46;;;;;;;16.20;6.13;;;8.50;99.90;;;;;;5113258;28;20211;-72
2023/12/27 02:30:18;;;;;;;18.93;6.23;;;8.50;99.90;;;;;;5113337;28;20180;-73
2023/12/27 02:32:45;;;;;;;22.27;7.00;;;8.50;99.90;;;;;;5113154;28;20164;-72
2023/12/27 02:35:11;;;;;;;16.47;6.90;;;8.50;99.90;;;;;;5113072;28;20171;-72
2023/12/27 02:37:36;;;;;;;15.20;6.40;;;8.50;99.90;;;;;;5113291;28;20228;-72
2023/12/27 02:40:03;;;;;;;15.50;7.60;;;8.60;99.90;;;;;;5112965;28;20203;-72
2023/12/27 02:42:29;;;;;;;14.70;7.30;;;8.60;99.90;;;;;;5113281;28;20163;-73
2023/12/27 02:44:55;;;;;;;13.37;7.17;;;8.60;99.90;;;;;;5113228;28;20183;-72
2023/12/27 02:47:20;;;;;;;15.90;7.10;;;8.60;99.90;;;;;;5113294;28;20171;-72
2023/12/27 02:49:46;;;;;;;11.93;7.30;;;8.70;99.90;;;;;;5113138;28;20187;-72
2023/12/27 02:52:11;;;;;;;11.90;7.60;;;8.60;99.90;;;;;;5113340;28;20213;-73
2023/12/27 02:54:37;;;;;;;21.67;7.77;;;8.70;99.90;;;;;;5094613;28;20538;-72
2023/12/27 02:57:03;;;;;;;18.80;8.07;;;8.70;99.90;;;;;;5113059;28;20258;-73
2023/12/27 02:59:28;;;;;;;16.70;7.17;;;8.80;99.90;;;;;;5113069;28;20214;-73
2023/12/27 03:01:54;;;;;;;16.27;7.60;;;8.80;99.90;;;;;;5113243;28;20190;-72
2023/12/27 03:04:20;;;;;;;13.20;7.67;;;8.80;99.90;;;;;;5094693;28;20650;-73
2023/12/27 03:06:45;;;;;;;14.93;7.40;;;8.90;99.90;;;;;;5113611;28;20209;-74
2023/12/27 03:09:11;;;;;;;17.13;8.20;;;8.90;99.90;;;;;;5116367;28;20178;-73
2023/12/27 03:11:37;;;;;;;13.40;8.03;;;9.00;99.90;;;;;;5116565;28;20183;-72
2023/12/27 03:14:02;;;;;;;17.30;8.37;;;9.00;99.90;;;;;;5116543;28;20167;-72
2023/12/27 03:16:28;;;;;;;17.80;7.93;;;8.90;99.90;;;;;;5116608;28;20167;-73
2023/12/27 03:18:54;;;;;;;16.50;8.57;;;8.90;99.90;;;;;;5116564;28;20199;-72
2023/12/27 03:21:19;;;;;;;13.60;8.17;;;8.90;99.90;;;;;;5116659;28;20513;-72
2023/12/27 03:23:46;;;;;;;19.77;8.43;;;8.90;99.90;;;;;;5116021;28;20167;-73
2023/12/27 03:26:11;;;;;;;15.30;7.83;;;8.90;99.90;;;;;;5116393;28;20178;-72
2023/12/27 03:28:37;;;;;;;15.17;8.63;;;9.00;99.90;;;;;;5116287;28;20218;-73
2023/12/27 03:31:03;;;;;;;14.83;8.87;;;9.10;99.90;;;;;;5116561;28;20174;-72
2023/12/27 03:33:28;;;;;;;15.57;8.80;;;9.10;99.90;;;;;;5116165;28;20163;-72
2023/12/27 03:35:54;;;;;;;14.67;8.10;;;9.20;99.90;;;;;;5116246;28;20175;-72
2023/12/27 03:38:19;;;;;;;16.30;8.00;;;9.20;99.90;;;;;;5115833;28;20168;-72
2023/12/27 03:40:45;;;;;;;15.30;8.43;;;9.20;99.90;;;;;;5115776;28;20254;-72
2023/12/27 03:43:10;;;;;;;10.20;7.57;;;9.30;99.90;;;;;;5116039;28;20163;-73
2023/12/27 03:45:36;;;;;;;10.67;6.97;;;9.40;99.90;;;;;;5115930;28;20701;-72
2023/12/27 03:48:02;;;;;;;9.30;7.70;;;9.40;99.90;;;;;;5115867;28;20170;-72
2023/12/27 03:50:28;;;;;;;11.13;7.40;;;9.40;99.90;;;;;;5115721;28;20258;-72
2023/12/27 03:52:53;;;;;;;9.93;7.30;;;9.40;99.90;;;;;;5115692;28;20258;-71
2023/12/27 03:55:20;;;;;;;11.83;7.40;;;9.50;99.90;;;;;;5115751;28;20630;-71
2023/12/27 03:57:45;;;;;;;10.77;7.13;;;9.50;99.90;;;;;;5115858;28;20202;-72
2023/12/27 04:00:11;;;;;;;12.63;7.33;;;9.50;99.90;;;;;;5115584;28;20739;-72
2023/12/27 04:02:37;;;;;;;9.97;7.27;;;9.60;99.90;;;;;;5115540;28;20168;-72
2023/12/27 04:05:03;;;;;;;9.73;7.07;;;9.60;99.90;;;;;;5115666;28;20645;-72
2023/12/27 04:07:29;;;;;;;12.87;7.50;;;9.60;99.90;;;;;;5114882;28;20634;-72
2023/12/27 04:09:55;;;;;;;9.30;7.20;;;9.60;99.90;;;;;;5115441;28;20254;-73
2023/12/27 04:12:21;;;;;;;12.47;6.73;;;9.60;99.90;;;;;;5115395;28;20223;-72
2023/12/27 04:14:47;;;;;;;13.13;7.40;;;9.60;99.90;;;;;;5115061;28;20201;-72
2023/12/27 04:17:13;;;;;;;9.60;6.57;;;9.60;99.90;;;;;;5114733;28;20165;-72
2023/12/27 04:19:39;;;;;;;9.60;7.10;;;9.60;99.90;;;;;;5114360;28;20210;-72
2023/12/27 04:22:05;;;;;;;11.70;7.10;;;9.60;99.90;;;;;;5114485;28;20532;-73
2023/12/27 04:24:30;;;;;;;10.70;7.37;;;9.60;99.90;;;;;;5115179;28;20179;-72
2023/12/27 04:26:56;;;;;;;11.70;7.70;;;9.60;99.90;;;;;;5115109;28;20242;-72
2023/12/27 04:29:22;;;;;;;9.40;6.87;;;9.60;99.90;;;;;;5074599;28;20227;-72
2023/12/27 04:31:47;;;;;;;8.50;6.80;;;9.60;99.90;;;;;;5074272;28;20168;-72
2023/12/27 04:34:13;;;;;;;11.87;7.90;;;9.60;99.90;;;;;;5074133;28;20188;-72
2023/12/27 04:36:38;;;;;;;11.20;6.90;;;9.60;99.90;;;;;;5073720;28;20196;-73
2023/12/27 04:39:04;;;;;;;12.37;7.50;;;9.70;99.90;;;;;;5074077;28;20674;-72
2023/12/27 04:41:29;;;;;;;9.73;6.83;;;9.80;99.90;;;;;;5073895;28;20177;-72
2023/12/27 04:43:55;;;;;;;9.40;6.87;;;9.80;99.90;;;;;;5072524;28;20181;-72
2023/12/27 04:46:21;;;;;;;10.27;7.10;;;9.80;99.90;;;;;;5073369;28;20270;-73
2023/12/27 04:48:46;;;;;;;8.30;6.37;;;9.80;99.90;;;;;;5074098;28;20184;-73
2023/12/27 04:51:12;;;;;;;8.33;6.40;;;9.80;99.90;;;;;;5073653;28;20169;-71
2023/12/27 04:53:38;;;;;;;8.63;6.80;;;9.90;99.90;;;;;;5073694;28;20173;-73
2023/12/27 04:56:04;;;;;;;10.13;6.43;;;9.90;99.90;;;;;;5073440;28;20184;-72
2023/12/27 04:58:29;;;;;;;7.87;6.50;;;9.90;99.90;;;;;;5073361;28;20264;-72
2023/12/27 05:00:55;;;;;;;6.97;6.27;;;10.00;99.90;;;;;;5072112;28;20180;-73
2023/12/27 05:03:20;;;;;;;8.50;6.33;;;10.00;99.90;;;;;;5073589;28;20267;-72
2023/12/27 05:05:47;;;;;;;8.13;6.37;;;10.00;99.90;;;;;;5073168;28;20586;-73
2023/12/27 05:08:12;;;;;;;6.50;5.90;;;10.10;99.90;;;;;;5072110;28;20168;-73
2023/12/27 05:10:38;;;;;;;6.20;5.53;;;10.20;99.90;;;;;;5073301;28;20225;-71
2023/12/27 05:13:03;;;;;;;5.57;4.97;;;10.20;99.90;;;;;;5073244;28;20185;-72
2023/12/27 05:15:29;;;;;;;7.37;5.70;;;10.20;99.90;;;;;;5073548;28;20175;-72
2023/12/27 05:17:55;;;;;;;6.77;5.50;;;10.30;99.90;;;;;;5072843;28;20188;-73
2023/12/27 05:20:20;;;;;;;6.03;5.40;;;10.30;99.90;;;;;;5072731;28;20729;-73
2023/12/27 05:22:46;;;;;;;5.80;5.20;;;10.40;99.90;;;;;;5072860;28;20183;-72
2023/12/27 05:25:12;;;;;;;5.20;4.70;;;10.40;99.90;;;;;;5073395;28;20168;-72
2023/12/27 05:27:37;;;;;;;5.83;5.17;;;10.40;99.90;;;;;;5080523;28;20242;-72
2023/12/27 05:30:03;;;;;;;5.27;4.87;;;10.30;99.90;;;;;;5112417;28;20211;-73
2023/12/27 05:32:29;;;;;;;5.20;4.70;;;10.40;99.90;;;;;;5113238;28;20662;-72
2023/12/27 05:34:55;;;;;;;6.73;4.83;;;10.40;99.90;;;;;;5112841;28;20207;-73
2023/12/27 05:37:21;;;;;;;5.13;4.57;;;10.50;99.90;;;;;;5113306;28;20539;-71
2023/12/27 05:39:46;;;;;;;5.60;4.30;;;10.50;99.90;;;;;;5113573;28;20211;-72
2023/12/27 05:42:15;;;;;;;4.63;4.20;;;10.60;99.90;;;;;;5113577;28;20174;-72
2023/12/27 05:44:40;;;;;;;4.13;3.83;;;10.50;99.90;;;;;;5112934;28;20196;-72
2023/12/27 05:47:06;;;;;;;3.93;3.63;;;10.50;99.90;;;;;;5113021;28;20178;-73
2023/12/27 05:49:31;;;;;;;4.87;3.50;;;10.50;99.90;;;;;;5112776;28;20229;-73
2023/12/27 05:51:57;;;;;;;4.73;4.33;;;10.50;99.90;;;;;;5112824;28;20202;-72
2023/12/27 05:54:23;;;;;;;3.53;3.23;;;10.50;99.90;;;;;;5113456;28;20203;-72
2023/12/27 05:56:49;;;;;;;3.87;3.57;;;10.50;99.90;;;;;;5113156;28;20220;-72
2023/12/27 05:59:15;;;;;;;4.83;3.50;;;10.50;99.90;;;;;;5113095;28;20696;-72
2023/12/27 06:01:48;;;;;;;4.57;3.13;;;10.50;99.90;;;;;;5112881;28;20163;-73
2023/12/27 06:04:17;;;;;;;3.20;2.90;;;10.50;99.90;;;;;;5094488;28;20606;-72
2023/12/27 06:06:44;;;;;;;4.73;3.60;;;10.60;99.90;;;;;;5113055;28;20297;-72
2023/12/27 06:09:10;;;;;;;3.50;3.20;;;10.60;99.90;;;;;;5112803;28;20216;-72
2023/12/27 06:11:37;;;;;;;3.10;2.80;;;10.70;99.90;;;;;;5112883;28;20183;-72
2023/12/27 06:14:03;;;;;;;2.97;2.73;;;10.70;99.90;;;;;;5112769;28;20163;-72
2023/12/27 06:16:28;;;;;;;3.17;2.60;;;10.70;99.90;;;;;;5112769;28;20171;-72
2023/12/27 06:18:56;;;;;;;3.63;2.40;;;10.70;99.90;;;;;;5113053;28;20194;-72
2023/12/27 06:21:22;;;;;;;2.83;2.60;;;10.60;99.90;;;;;;5112917;28;20179;-72
2023/12/27 06:23:47;;;;;;;2.97;2.13;;;10.60;99.90;;;;;;5112530;28;20171;-73
2023/12/27 06:26:13;;;;;;;3.03;2.30;;;10.60;99.90;;;;;;5094417;28;20530;-72
2023/12/27 06:28:39;;;;;;;2.83;2.47;;;10.60;99.90;;;;;;5093931;28;20230;-72
2023/12/27 06:31:05;;;;;;;2.93;2.63;;;10.60;99.90;;;;;;5094330;28;20175;-73
2023/12/27 06:33:31;;;;;;;3.57;2.50;;;10.60;99.90;;;;;;5112524;28;20217;-72
2023/12/27 06:35:56;;;;;;;2.40;2.20;;;10.70;99.90;;;;;;5112020;28;20171;-72
2023/12/27 06:38:22;;;;;;;2.50;2.30;;;10.70;99.90;;;;;;5112772;28;20225;-71
2023/12/27 06:40:48;;;;;;;5.00;2.10;;;10.80;99.90;;;;;;5112942;28;20528;-73
2023/12/27 06:43:13;;;;;;;3.13;1.93;;;10.80;99.90;;;;;;5115864;28;20176;-72
2023/12/27 06:45:39;;;;;;;2.10;1.90;;;10.90;99.90;;;;;;5097688;28;20694;-72
2023/12/27 06:48:04;;;;;;;3.27;2.00;;;10.90;99.90;;;;;;5116906;28;20218;-72
2023/12/27 06:50:30;;;;;;;2.57;2.03;;;10.90;99.90;;;;;;5097347;28;20171;-72
2023/12/27 06:52:56;;;;;;;3.23;2.17;;;10.90;99.90;;;;;;5116180;28;20196;-72
2023/12/27 06:55:22;;;;;;;3.57;2.10;;;10.80;99.90;;;;;;5115672;28;20167;-72
2023/12/27 06:57:48;;;;;;;3.33;2.03;;;10.80;99.90;;;;;;5116461;28;20497;-72
2023/12/27 07:00:15;;;;;;;3.47;2.47;;;10.80;99.90;;;;;;5115768;28;20202;-72
2023/12/27 07:02:41;;;;;;;3.90;2.00;;;10.70;99.90;;;;;;5116297;28;20171;-72
2023/12/27 07:05:07;;;;;;;5.00;1.87;;;10.70;99.90;;;;;;5116038;28;20195;-72
2023/12/27 07:07:33;;;;;;;3.17;2.00;;;10.70;99.90;;;;;;5116489;28;20155;-73
2023/12/27 07:09:59;;;;;;;3.83;2.17;;;10.60;99.90;;;;;;5115994;28;20167;-72
2023/12/27 07:12:24;;;;;;;2.93;1.80;;;10.50;99.90;;;;;;5115866;28;20223;-72
2023/12/27 07:14:50;;;;;;;3.17;2.07;;;10.50;99.90;;;;;;5096974;28;20172;-71
2023/12/27 07:17:15;;;;;;;3.27;2.10;;;10.50;99.90;;;;;;5116273;28;20175;-73
2023/12/27 07:19:41;;;;;;;2.40;1.90;;;10.50;99.90;;;;;;5115692;28;20206;-72
2023/12/27 07:22:06;;;;;;;4.30;2.03;;;10.40;99.90;;;;;;5115711;28;20254;-72
2023/12/27 07:24:32;;;;;;;2.30;1.70;;;10.40;99.90;;;;;;5116094;28;20172;-72
2023/12/27 07:26:58;;;;;;;2.20;2.00;;;10.50;99.90;;;;;;5115486;28;20179;-72
2023/12/27 07:29:24;;;;;;;2.50;2.00;;;10.50;99.90;;;;;;5115168;28;20773;-72
2023/12/27 07:31:49;;;;;;;3.93;2.20;;;10.50;99.90;;;;;;5115825;28;20254;-72
2023/12/27 07:34:16;;;;;;;2.63;2.20;;;10.50;99.90;;;;;;5115157;28;20677;-72
2023/12/27 07:36:41;;;;;;;4.07;1.97;;;10.50;99.90;;;;;;5115269;28;20209;-72
2023/12/27 07:39:09;;;;;;;2.40;1.80;;;10.60;99.90;;;;;;5115208;28;20241;-72
2023/12/27 07:41:35;;;;;;;7.90;2.27;;;10.60;99.90;;;;;;5115382;28;20649;-73
2023/12/27 07:44:00;;;;;;;3.30;2.10;;;10.60;99.90;;;;;;5114659;28;20167;-72
2023/12/27 07:46:26;;;;;;;3.03;2.00;;;10.60;99.90;;;;;;5115252;28;20195;-73
2023/12/27 07:48:52;;;;;;;3.37;1.97;;;10.80;99.90;;;;;;5114974;28;20273;-72
2023/12/27 07:51:17;;;;;;;3.03;2.20;;;10.70;99.90;;;;;;5115146;28;20175;-73
2023/12/27 07:53:43;;;;;;;2.57;1.80;;;10.80;99.90;;;;;;5095627;28;20214;-72
2023/12/27 07:56:12;;;;;;;4.23;2.20;;;10.80;99.90;;;;;;5114562;28;20519;-73
2023/12/27 07:58:37;;;;;;;3.10;2.10;;;10.80;99.90;;;;;;5114520;28;20186;-74
2023/12/27 08:01:03;;;;;;;2.37;2.00;;;10.90;99.90;;;;;;5115337;28;20175;-72
2023/12/27 08:03:28;;;;;;;5.07;2.30;;;10.90;99.90;;;;;;5115091;28;20175;-72
2023/12/27 08:05:54;;;;;;;3.73;2.23;;;10.90;99.90;;;;;;5114854;28;20163;-73
2023/12/27 08:08:20;;;;;;;6.23;2.90;;;10.90;99.90;;;;;;5095873;28;20200;-73
2023/12/27 08:10:45;;;;;;;5.43;2.23;;;10.80;99.90;;;;;;5095675;28;20175;-72
2023/12/27 08:13:11;;;;;;;3.77;2.40;;;10.90;99.90;;;;;;5114317;28;20167;-72
2023/12/27 08:15:36;;;;;;;2.87;2.20;;;10.90;99.90;;;;;;5114448;28;20204;-72
2023/12/27 08:18:05;;;;;;;2.53;2.30;;;10.90;99.90;;;;;;5114390;28;20170;-72
2023/12/27 08:20:30;;;;;;;5.40;2.70;;;10.90;99.90;;;;;;5114516;28;20207;-72
2023/12/27 08:22:58;;;;;;;4.30;2.80;;;11.00;99.90;;;;;;5114352;28;20163;-73
2023/12/27 08:25:24;;;;;;;6.67;2.40;;;11.00;99.90;;;;;;5096506;28;20223;-73
2023/12/27 08:27:49;;;;;;;4.77;2.40;;;10.90;99.90;;;;;;5114048;28;20681;-73
2023/12/27 08:30:16;;;;;;;6.40;2.70;;;10.90;99.90;;;;;;5114281;28;20182;-72
2023/12/27 08:32:41;;;;;;;4.07;2.67;;;11.00;99.90;;;;;;5114150;28;20181;-72
2023/12/27 08:35:07;;;;;;;9.83;2.77;;;10.90;99.90;;;;;;5114366;28;20170;-73
2023/12/27 08:37:33;;;;;;;4.60;2.57;;;10.90;99.90;;;;;;5113835;28;20167;-72
2023/12/27 08:39:58;;;;;;;7.77;2.80;;;10.90;99.90;;;;;;5114268;28;20607;-73
2023/12/27 08:42:24;;;;;;;4.53;2.83;;;10.90;99.90;;;;;;5113453;28;20575;-72
2023/12/27 08:44:50;;;;;;;6.73;3.00;;;10.90;99.90;;;;;;5114357;28;20630;-74
2023/12/27 08:47:16;;;;;;;4.57;2.70;;;10.90;99.90;;;;;;5114565;28;20178;-72
2023/12/27 08:49:41;;;;;;;6.23;3.13;;;11.00;99.90;;;;;;5114266;28;20183;-73
2023/12/27 08:52:07;;;;;;;6.60;3.00;;;11.00;99.90;;;;;;5113788;28;20167;-73
2023/12/27 08:54:33;;;;;;;5.03;3.03;;;11.00;99.90;;;;;;5113631;28;20190;-73
2023/12/27 08:56:58;;;;;;;4.67;2.83;;;11.10;99.90;;;;;;5113521;28;20164;-73
2023/12/27 08:59:24;;;;;;;9.03;3.40;;;11.20;99.90;;;;;;5114094;28;20732;-73
2023/12/27 09:01:50;;;;;;;7.97;3.33;;;11.20;99.90;;;;;;5113403;28;20170;-73
2023/12/27 09:04:18;;;;;;;5.00;2.93;;;11.30;99.90;;;;;;5113906;28;20628;-72
2023/12/27 09:06:44;;;;;;;6.77;3.30;;;11.30;99.90;;;;;;5113790;28;20248;-74
2023/12/27 09:09:11;;;;;;;11.30;3.50;;;11.30;99.90;;;;;;5095218;28;20187;-72
2023/12/27 09:11:36;;;;;;;4.70;3.33;;;11.30;99.90;;;;;;5113059;28;20205;-73
2023/12/27 09:14:02;;;;;;;4.00;3.00;;;11.20;99.90;;;;;;5113421;28;20207;-73
2023/12/27 09:16:28;;;;;;;5.83;3.07;;;11.20;99.90;;;;;;5113368;28;20171;-73
2023/12/27 09:18:53;;;;;;;4.20;3.50;;;11.20;99.90;;;;;;5113417;28;20167;-72
2023/12/27 09:21:19;;;;;;;7.10;3.40;;;11.20;99.90;;;;;;5113161;28;20167;-72
2023/12/27 09:23:45;;;;;;;4.87;3.73;;;11.20;99.90;;;;;;5112720;28;20495;-73
2023/12/27 09:26:13;;;;;;;3.93;3.50;;;11.10;99.90;;;;;;5113032;28;20176;-74
2023/12/27 09:28:39;;;;;;;5.80;3.70;;;11.10;99.90;;;;;;5112728;28;20215;-74
2023/12/27 09:31:04;;;;;;;8.07;4.17;;;11.10;99.90;;;;;;5113161;28;20182;-73
2023/12/27 09:33:30;;;;;;;4.43;3.73;;;11.10;99.90;;;;;;5113650;28;20175;-73
2023/12/27 09:35:56;;;;;;;5.33;3.50;;;11.10;99.90;;;;;;5113086;28;20213;-73
2023/12/27 09:38:21;;;;;;;8.43;3.93;;;11.20;99.90;;;;;;5113381;28;20167;-73
2023/12/27 09:40:48;;;;;;;5.67;3.50;;;11.10;99.90;;;;;;5112334;28;20202;-73
2023/12/27 09:43:15;;;;;;;6.93;4.13;;;11.10;99.90;;;;;;5113336;28;20308;-73
2023/12/27 09:45:41;;;;;;;8.13;3.87;;;11.10;99.90;;;;;;5112632;28;20211;-72
2023/12/27 09:48:11;;;;;;;6.70;3.73;;;11.00;99.90;;;;;;5113020;28;20182;-73
2023/12/27 09:50:39;;;;;;;5.97;4.33;;;11.00;99.90;;;;;;5112974;28;20181;-74
2023/12/27 09:53:05;;;;;;;8.03;4.10;;;11.00;99.90;;;;;;5112855;28;20167;-74
2023/12/27 09:55:32;;;;;;;7.27;4.30;;;11.00;99.90;;;;;;5094245;28;20175;-73
2023/12/27 09:57:58;;;;;;;13.47;4.40;;;11.00;99.90;;;;;;5112796;28;20236;-73
2023/12/27 10:00:28;;;;;;;4.93;4.30;;;11.00;99.90;;;;;;5112885;28;20210;-73
2023/12/27 10:02:58;;;;;;;11.53;4.60;;;11.10;99.90;;;;;;5112588;28;20266;-73
2023/12/27 10:05:32;;;;;;;7.57;4.03;;;11.00;99.90;;;;;;5112940;28;20159;-72
2023/12/27 10:08:00;;;;;;;6.33;4.50;;;11.00;99.90;;;;;;5113240;28;20524;-73
2023/12/27 10:10:26;;;;;;;6.93;4.60;;;11.10;99.90;;;;;;5093855;28;20209;-73
2023/12/27 10:12:54;;;;;;;7.57;4.17;;;11.00;99.90;;;;;;5113028;28;20183;-72
2023/12/27 10:15:19;;;;;;;8.50;3.87;;;11.10;99.90;;;;;;5113211;28;20262;-73
2023/12/27 10:17:45;;;;;;;7.67;4.00;;;11.20;99.90;;;;;;5116779;28;20256;-73
2023/12/27 10:20:33;;;;;;;8.80;4.00;;;11.20;99.90;;;;;;5116895;28;20203;-72
2023/12/27 10:23:00;;;;;;;6.67;3.97;;;11.20;99.90;;;;;;5116739;28;20167;-74
2023/12/27 10:25:28;;;;;;;6.80;3.60;;;11.20;99.90;;;;;;5117006;28;20631;-73
2023/12/27 10:27:57;;;;;;;8.07;4.13;;;11.20;99.90;;;;;;5116712;28;20206;-73
2023/12/27 10:30:22;;;;;;;5.00;3.67;;;11.20;99.90;;;;;;5116850;28;20197;-73
2023/12/27 10:33:01;;;;;;;7.90;3.87;;;11.20;99.90;;;;;;5116415;28;20203;-73
2023/12/27 10:35:28;;;;;;;10.13;3.90;;;11.30;99.90;;;;;;5116015;28;20652;-73
2023/12/27 10:38:04;;;;;;;6.67;3.87;;;11.30;99.90;;;;;;5116656;28;20170;-73
2023/12/27 10:40:30;;;;;;;6.10;3.73;;;11.10;99.90;;;;;;5116291;28;20198;-74
2023/12/27 10:42:57;;;;;;;7.37;3.87;;;11.10;99.90;;;;;;5116265;28;20198;-74
2023/12/27 10:45:23;;;;;;;6.23;4.07;;;11.10;99.90;;;;;;5115842;28;20657;-73
2023/12/27 10:47:59;;;;;;;8.00;3.90;;;11.10;99.90;;;;;;5117048;28;20159;-74
2023/12/27 10:50:29;;;;;;;6.80;3.80;;;11.00;99.90;;;;;;5115935;28;20171;-72
2023/12/27 10:53:06;;;;;;;5.90;3.50;;;11.10;99.90;;;;;;5115666;28;20245;-73
2023/12/27 10:55:32;;;;;;;7.63;3.77;;;11.10;99.90;;;;;;5116215;28;20171;-73
2023/12/27 10:58:00;;;;;;;8.30;3.70;;;11.20;99.90;;;;;;5116184;28;20194;-73
2023/12/27 11:00:26;;;;;;;9.17;3.90;;;11.20;99.90;;;;;;5115472;28;20711;-74
2023/12/27 11:02:53;;;;;;;8.27;3.80;;;11.30;99.90;;;;;;5115376;28;20246;-74
2023/12/27 11:05:22;;;;;;;7.47;3.70;;;11.20;99.90;;;;;;5115989;28;20233;-74
2023/12/27 11:07:52;;;;;;;6.63;3.80;;;11.30;99.90;;;;;;5115937;28;20162;-74
2023/12/27 11:10:19;;;;;;;7.43;3.90;;;11.30;99.90;;;;;;5115957;28;20634;-74
2023/12/27 11:12:46;;;;;;;9.33;3.80;;;11.30;99.90;;;;;;5115455;28;20187;-73
2023/12/27 11:15:16;;;;;;;8.80;4.13;;;11.40;99.90;;;;;;5116548;28;20251;-73
2023/12/27 11:17:42;;;;;;;8.00;4.40;;;11.50;99.90;;;;;;5115992;28;20187;-73
2023/12/27 11:20:11;;;;;;;8.23;4.00;;;11.60;99.90;;;;;;5115467;28;20214;-74
2023/12/27 11:22:38;;;;;;;7.87;3.77;;;11.50;99.90;;;;;;5115318;28;20220;-73
2023/12/27 11:25:05;;;;;;;7.00;4.00;;;11.50;99.90;;;;;;5116050;28;20183;-74
2023/12/27 11:27:31;;;;;;;6.27;4.13;;;11.40;99.90;;;;;;5113982;28;20168;-72
2023/12/27 11:29:57;;;;;;;8.40;3.97;;;11.40;99.90;;;;;;5115155;28;20270;-74
2023/12/27 11:32:25;;;;;;;10.73;4.23;;;11.50;99.90;;;;;;5115839;28;20182;-75
2023/12/27 11:34:53;;;;;;;5.93;3.93;;;11.60;99.90;;;;;;5115196;28;20191;-74
2023/12/27 11:37:19;;;;;;;8.33;4.40;;;11.60;99.90;;;;;;5115835;28;20217;-74
2023/12/27 11:39:48;;;;;;;7.40;4.07;;;11.60;99.90;;;;;;5116440;28;20215;-74
2023/12/27 11:42:17;;;;;;;7.43;4.10;;;11.70;99.90;;;;;;5115799;28;20164;-74
2023/12/27 11:44:49;;;;;;;6.13;3.60;;;11.80;99.90;;;;;;5115178;28;20168;-74
2023/12/27 11:47:15;;;;;;;6.30;3.60;;;11.80;99.90;;;;;;5114868;28;20548;-73
2023/12/27 11:49:42;;;;;;;9.27;4.13;;;11.80;99.90;;;;;;5114754;28;20245;-74
2023/12/27 11:52:08;;;;;;;15.27;5.60;;;11.70;99.90;;;;;;5114999;28;20163;-73
2023/12/27 11:54:33;;;;;;;8.97;4.37;;;11.80;99.90;;;;;;5115222;28;20588;-74
2023/12/27 11:56:59;;;;;;;7.70;3.67;;;11.80;99.90;;;;;;5114131;28;20220;-73
2023/12/27 11:59:26;;;;;;;7.30;3.50;;;11.70;99.90;;;;;;5114146;28;20195;-73
2023/12/27 12:01:52;;;;;;;7.27;4.10;;;11.70;99.90;;;;;;5115041;28;20493;-73
2023/12/27 12:04:35;;;;;;;8.07;3.97;;;11.70;99.90;;;;;;5115411;28;20219;-74
2023/12/27 12:07:26;;;;;;;7.13;3.83;;;11.70;99.90;;;;;;5114557;28;20266;-74
2023/12/27 12:09:51;;;;;;;6.77;4.13;;;11.60;99.90;;;;;;5114373;28;20167;-72
2023/12/27 12:12:22;;;;;;;8.53;4.07;;;11.60;99.90;;;;;;5114780;28;20240;-74
2023/12/27 12:14:51;;;;;;;6.23;3.97;;;11.60;99.90;;;;;;5114119;28;20174;-74
2023/12/27 12:17:19;;;;;;;7.10;3.83;;;11.70;99.90;;;;;;5114921;28;20255;-73
2023/12/27 12:19:46;;;;;;;7.03;3.90;;;11.70;99.90;;;;;;5114654;28;20207;-74
2023/12/27 12:22:13;;;;;;;4.37;3.33;;;11.70;99.90;;;;;;5112994;28;20159;-73
2023/12/27 12:24:39;;;;;;;11.30;4.67;;;11.60;99.90;;;;;;5114111;28;20524;-74
2023/12/27 12:27:05;;;;;;;6.47;3.33;;;11.60;99.90;;;;;;5114069;28;20219;-74
2023/12/27 12:29:31;;;;;;;7.87;3.73;;;11.70;99.90;;;;;;5113490;28;20211;-73
2023/12/27 12:31:56;;;;;;;6.23;3.60;;;11.70;99.90;;;;;;5114253;28;20178;-73
2023/12/27 12:34:23;;;;;;;5.37;3.40;;;11.60;99.90;;;;;;5113900;28;20232;-75
2023/12/27 12:36:50;;;;;;;8.40;3.93;;;11.60;99.90;;;;;;5113662;28;20271;-73
2023/12/27 12:39:16;;;;;;;7.40;3.77;;;11.60;99.90;;;;;;5113088;28;20298;-73
2023/12/27 12:41:43;;;;;;;7.23;3.40;;;11.60;99.90;;;;;;5114253;28;20202;-74
2023/12/27 12:44:12;;;;;;;5.53;3.53;;;11.60;99.90;;;;;;5114164;28;20225;-73